createdAt,value
2023-04-26T00:00:43.544Z,79.61
2023-04-26T00:01:43.531Z,79.82
2023-04-26T00:02:43.660Z,79.71
2023-04-26T00:03:43.726Z,79.51
2023-04-26T00:04:43.826Z,79.82
2023-04-26T00:05:43.551Z,80.37
2023-04-26T00:06:43.476Z,79.44
2023-04-26T00:07:43.459Z,79.85
2023-04-26T00:08:43.448Z,79.96
2023-04-26T00:09:43.435Z,79.44
2023-04-26T00:10:43.437Z,80.06
2023-04-26T00:11:43.410Z,79.75
2023-04-26T00:12:43.399Z,79.96
2023-04-26T00:13:43.388Z,79.85
2023-04-26T00:14:43.388Z,80.79
2023-04-26T00:15:43.364Z,80.58
2023-04-26T00:16:43.479Z,80.89
2023-04-26T00:17:43.372Z,80.89
2023-04-26T00:18:43.333Z,80.68
2023-04-26T00:19:43.316Z,81.20
2023-04-26T00:20:43.307Z,81.10
2023-04-26T00:21:43.297Z,81.66
2023-04-26T00:22:43.293Z,81.10
2023-04-26T00:23:43.280Z,81.62
2023-04-26T00:24:43.329Z,81.56
2023-04-26T00:25:43.251Z,81.45
2023-04-26T00:26:43.244Z,81.45
2023-04-26T00:27:43.249Z,81.45
2023-04-26T00:28:43.223Z,81.45
2023-04-26T00:29:43.206Z,81.56
2023-04-26T00:30:43.194Z,80.83
2023-04-26T00:31:43.236Z,81.56
2023-04-26T00:32:43.235Z,80.93
2023-04-26T00:33:43.149Z,81.56
2023-04-26T00:34:43.142Z,81.87
2023-04-26T00:35:43.134Z,81.87
2023-04-26T00:36:43.122Z,81.97
2023-04-26T00:37:43.105Z,82.07
2023-04-26T00:38:43.090Z,82.01
2023-04-26T00:39:43.087Z,81.97
2023-04-26T00:40:43.082Z,82.42
2023-04-26T00:41:43.066Z,82.49
2023-04-26T00:42:43.044Z,82.32
2023-04-26T00:43:43.038Z,83.15
2023-04-26T00:44:43.023Z,82.73
2023-04-26T00:45:43.034Z,83.25
2023-04-26T00:46:43.005Z,82.73
2023-04-26T00:47:43.001Z,83.04
2023-04-26T00:48:42.978Z,82.84
2023-04-26T00:49:43.052Z,82.84
2023-04-26T00:50:42.951Z,82.53
2023-04-26T00:51:42.934Z,82.73
2023-04-26T00:52:42.935Z,82.84
2023-04-26T00:53:42.915Z,83.36
2023-04-26T00:54:42.907Z,83.46
2023-04-26T00:55:42.934Z,83.67
2023-04-26T00:56:42.883Z,84.01
2023-04-26T00:57:42.870Z,83.87
2023-04-26T00:58:42.858Z,83.87
2023-04-26T00:59:42.852Z,83.70
2023-04-26T01:00:42.870Z,83.39
2023-04-26T01:01:42.910Z,83.67
2023-04-26T01:02:42.875Z,83.70
2023-04-26T01:03:43.054Z,83.87
2023-04-26T01:04:42.785Z,83.67
2023-04-26T01:05:42.772Z,83.87
2023-04-26T01:06:42.761Z,83.70
2023-04-26T01:07:42.756Z,83.70
2023-04-26T01:08:42.738Z,84.50
2023-04-26T01:09:42.726Z,83.91
2023-04-26T01:10:42.714Z,83.70
2023-04-26T01:11:42.707Z,84.01
2023-04-26T01:12:42.694Z,83.70
2023-04-26T01:13:42.678Z,83.87
2023-04-26T01:14:42.663Z,83.70
2023-04-26T01:15:42.664Z,84.33
2023-04-26T01:16:42.665Z,84.39
2023-04-26T01:17:42.654Z,84.33
2023-04-26T01:18:42.618Z,84.33
2023-04-26T01:19:42.601Z,84.22
2023-04-26T01:20:42.596Z,84.53
2023-04-26T01:21:42.586Z,84.12
2023-04-26T01:22:42.581Z,84.64
2023-04-26T01:23:42.562Z,85.26
2023-04-26T01:24:42.554Z,84.74
2023-04-26T01:25:42.534Z,84.95
2023-04-26T01:26:42.518Z,84.64
2023-04-26T01:27:42.506Z,85.26
2023-04-26T01:28:42.509Z,84.99
2023-04-26T01:29:42.484Z,85.41
2023-04-26T01:30:42.484Z,85.88
2023-04-26T01:31:42.465Z,85.93
2023-04-26T01:32:42.479Z,85.82
2023-04-26T01:33:42.439Z,85.61
2023-04-26T01:34:42.420Z,85.78
2023-04-26T01:35:42.409Z,85.99
2023-04-26T01:36:42.404Z,85.36
2023-04-26T01:37:42.383Z,85.57
2023-04-26T01:38:42.373Z,85.16
2023-04-26T01:39:42.366Z,85.68
2023-04-26T01:40:42.347Z,85.47
2023-04-26T01:41:42.343Z,85.57
2023-04-26T01:42:42.333Z,85.36
2023-04-26T01:43:42.312Z,85.26
2023-04-26T01:44:42.299Z,85.47
2023-04-26T01:45:42.277Z,85.47
2023-04-26T01:46:42.305Z,85.88
2023-04-26T01:47:42.323Z,85.47
2023-04-26T01:48:42.249Z,85.36
2023-04-26T01:49:42.240Z,85.57
2023-04-26T01:50:42.231Z,85.47
2023-04-26T01:51:42.213Z,85.93
2023-04-26T01:52:42.196Z,85.68
2023-04-26T01:53:42.189Z,86.24
2023-04-26T01:54:42.186Z,86.24
2023-04-26T01:55:42.206Z,86.03
2023-04-26T01:56:42.160Z,86.51
2023-04-26T01:57:42.140Z,85.88
2023-04-26T01:58:42.124Z,86.34
2023-04-26T01:59:42.120Z,86.09
2023-04-26T02:00:42.102Z,86.13
2023-04-26T02:01:42.138Z,86.03
2023-04-26T02:02:42.195Z,86.09
2023-04-26T02:03:42.193Z,86.13
2023-04-26T02:04:42.159Z,86.19
2023-04-26T02:05:42.042Z,86.34
2023-04-26T02:06:42.029Z,86.19
2023-04-26T02:07:42.029Z,86.13
2023-04-26T02:08:42.003Z,86.55
2023-04-26T02:09:41.991Z,86.24
2023-04-26T02:10:41.988Z,87.01
2023-04-26T02:11:41.973Z,86.96
2023-04-26T02:12:41.953Z,87.21
2023-04-26T02:13:41.948Z,87.01
2023-04-26T02:14:41.932Z,86.96
2023-04-26T02:15:41.987Z,86.55
2023-04-26T02:16:41.923Z,87.21
2023-04-26T02:17:41.935Z,87.07
2023-04-26T02:18:41.898Z,87.48
2023-04-26T02:19:41.871Z,87.73
2023-04-26T02:20:41.859Z,87.38
2023-04-26T02:21:41.846Z,87.69
2023-04-26T02:22:41.856Z,87.69
2023-04-26T02:23:41.823Z,87.69
2023-04-26T02:24:41.808Z,87.27
2023-04-26T02:25:41.800Z,87.11
2023-04-26T02:26:41.785Z,87.94
2023-04-26T02:27:41.781Z,87.32
2023-04-26T02:28:41.759Z,87.69
2023-04-26T02:29:44.749Z,87.48
2023-04-26T02:30:41.751Z,88.00
2023-04-26T02:31:41.752Z,88.00
2023-04-26T02:32:41.747Z,88.00
2023-04-26T02:33:41.750Z,87.73
2023-04-26T02:34:41.703Z,88.46
2023-04-26T02:35:41.688Z,88.25
2023-04-26T02:36:41.804Z,88.21
2023-04-26T02:37:41.655Z,88.35
2023-04-26T02:38:41.662Z,88.10
2023-04-26T02:39:41.623Z,88.35
2023-04-26T02:40:41.614Z,88.25
2023-04-26T02:41:41.614Z,88.46
2023-04-26T02:42:41.587Z,88.04
2023-04-26T02:43:41.649Z,88.15
2023-04-26T02:44:41.569Z,88.35
2023-04-26T02:45:41.552Z,88.04
2023-04-26T02:46:41.661Z,88.15
2023-04-26T02:47:41.550Z,87.94
2023-04-26T02:48:41.512Z,87.84
2023-04-26T02:49:41.513Z,87.63
2023-04-26T02:50:41.491Z,87.63
2023-04-26T02:51:41.496Z,87.84
2023-04-26T02:52:41.460Z,87.84
2023-04-26T02:53:41.463Z,88.04
2023-04-26T02:54:41.428Z,87.73
2023-04-26T02:55:41.419Z,88.67
2023-04-26T02:56:41.410Z,88.25
2023-04-26T02:57:41.402Z,88.35
2023-04-26T02:58:41.382Z,88.25
2023-04-26T02:59:41.373Z,88.35
2023-04-26T03:00:41.397Z,87.84
2023-04-26T03:01:41.348Z,87.63
2023-04-26T03:02:41.506Z,88.98
2023-04-26T03:03:41.453Z,88.98
2023-04-26T03:04:41.303Z,88.67
2023-04-26T03:05:41.297Z,89.08
2023-04-26T03:06:41.284Z,88.77
2023-04-26T03:07:41.269Z,89.29
2023-04-26T03:08:41.257Z,88.60
2023-04-26T03:09:41.282Z,88.46
2023-04-26T03:10:41.234Z,89.50
2023-04-26T03:11:41.244Z,89.33
2023-04-26T03:12:41.208Z,88.98
2023-04-26T03:13:41.199Z,89.12
2023-04-26T03:14:41.188Z,89.29
2023-04-26T03:15:41.176Z,89.64
2023-04-26T03:16:41.320Z,89.95
2023-04-26T03:17:41.181Z,89.95
2023-04-26T03:18:41.132Z,89.02
2023-04-26T03:19:41.131Z,89.64
2023-04-26T03:20:41.104Z,88.87
2023-04-26T03:21:41.117Z,89.33
2023-04-26T03:22:41.085Z,89.92
2023-04-26T03:23:41.073Z,89.50
2023-04-26T03:24:41.059Z,88.98
2023-04-26T03:25:41.052Z,88.87
2023-04-26T03:26:41.055Z,89.02
2023-04-26T03:27:41.022Z,89.95
2023-04-26T03:28:41.010Z,89.18
2023-04-26T03:29:42.849Z,89.75
2023-04-26T03:30:40.986Z,89.23
2023-04-26T03:31:41.114Z,89.64
2023-04-26T03:32:41.022Z,90.06
2023-04-26T03:33:40.955Z,90.06
2023-04-26T03:34:40.931Z,90.26
2023-04-26T03:35:41.042Z,90.26
2023-04-26T03:36:40.911Z,90.37
2023-04-26T03:37:40.895Z,90.58
2023-04-26T03:38:40.888Z,90.12
2023-04-26T03:39:40.870Z,90.06
2023-04-26T03:40:40.873Z,89.85
2023-04-26T03:41:40.853Z,89.85
2023-04-26T03:42:40.833Z,90.06
2023-04-26T03:43:40.821Z,90.06
2023-04-26T03:44:40.823Z,90.16
2023-04-26T03:45:40.803Z,89.95
2023-04-26T03:46:40.802Z,89.95
2023-04-26T03:47:40.812Z,90.26
2023-04-26T03:48:40.761Z,90.37
2023-04-26T03:49:40.750Z,90.37
2023-04-26T03:50:40.734Z,90.58
2023-04-26T03:51:40.733Z,90.47
2023-04-26T03:52:40.713Z,90.47
2023-04-26T03:53:40.699Z,90.69
2023-04-26T03:54:40.681Z,90.69
2023-04-26T03:55:40.681Z,90.26
2023-04-26T03:56:40.654Z,90.26
2023-04-26T03:57:40.644Z,90.26
2023-04-26T03:58:40.665Z,90.26
2023-04-26T03:59:40.624Z,90.58
2023-04-26T04:00:40.629Z,90.37
2023-04-26T04:01:40.600Z,90.69
2023-04-26T04:02:40.681Z,90.79
2023-04-26T04:03:41.367Z,90.37
2023-04-26T04:04:40.667Z,90.26
2023-04-26T04:05:40.610Z,90.37
2023-04-26T04:06:40.529Z,90.26
2023-04-26T04:07:40.518Z,90.33
2023-04-26T04:08:40.528Z,90.37
2023-04-26T04:09:40.503Z,90.12
2023-04-26T04:10:40.472Z,90.06
2023-04-26T04:11:40.467Z,90.33
2023-04-26T04:12:40.456Z,90.23
2023-04-26T04:13:40.445Z,90.06
2023-04-26T04:14:40.430Z,90.06
2023-04-26T04:15:40.433Z,89.75
2023-04-26T04:16:40.405Z,89.81
2023-04-26T04:17:40.439Z,89.70
2023-04-26T04:18:40.377Z,89.39
2023-04-26T04:19:40.414Z,89.08
2023-04-26T04:20:40.353Z,88.98
2023-04-26T04:21:40.341Z,89.18
2023-04-26T04:22:40.360Z,89.50
2023-04-26T04:23:40.312Z,89.39
2023-04-26T04:24:40.304Z,89.29
2023-04-26T04:25:40.291Z,89.25
2023-04-26T04:26:40.275Z,89.36
2023-04-26T04:27:40.261Z,89.46
2023-04-26T04:28:40.253Z,88.73
2023-04-26T04:29:40.239Z,89.36
2023-04-26T04:30:40.230Z,87.76
2023-04-26T04:31:40.378Z,88.00
2023-04-26T04:32:40.377Z,88.21
2023-04-26T04:33:40.187Z,88.28
2023-04-26T04:34:40.174Z,87.65
2023-04-26T04:35:40.165Z,87.86
2023-04-26T04:36:40.156Z,88.07
2023-04-26T04:37:40.140Z,87.13
2023-04-26T04:38:40.125Z,86.78
2023-04-26T04:39:40.115Z,87.24
2023-04-26T04:40:40.124Z,86.47
2023-04-26T04:41:40.099Z,86.57
2023-04-26T04:42:40.082Z,86.68
2023-04-26T04:43:40.067Z,86.05
2023-04-26T04:44:40.058Z,86.26
2023-04-26T04:45:40.041Z,86.36
2023-04-26T04:46:40.055Z,86.05
2023-04-26T04:47:40.111Z,85.60
2023-04-26T04:48:40.008Z,85.81
2023-04-26T04:49:39.991Z,84.52
2023-04-26T04:50:39.980Z,84.52
2023-04-26T04:51:39.964Z,84.38
2023-04-26T04:52:39.958Z,83.51
2023-04-26T04:53:39.945Z,82.09
2023-04-26T04:54:39.929Z,80.57
2023-04-26T04:55:39.935Z,79.29
2023-04-26T04:56:39.911Z,76.53
2023-04-26T04:57:41.422Z,75.67
2023-04-26T04:58:39.879Z,74.29
2023-04-26T04:59:40.398Z,73.54
2023-04-26T05:00:39.860Z,72.78
2023-04-26T05:01:39.884Z,71.61
2023-04-26T05:02:39.954Z,70.28
2023-04-26T05:03:39.923Z,70.55
2023-04-26T05:04:39.941Z,70.31
2023-04-26T05:05:39.806Z,68.80
2023-04-26T05:06:39.793Z,67.44
2023-04-26T05:07:39.787Z,66.82
2023-04-26T05:08:39.788Z,66.86
2023-04-26T05:09:39.760Z,65.50
2023-04-26T05:10:39.757Z,64.78
2023-04-26T05:11:39.743Z,63.62
2023-04-26T05:12:39.729Z,64.31
2023-04-26T05:13:39.719Z,63.46
2023-04-26T05:14:39.708Z,61.33
2023-04-26T05:15:39.695Z,62.26
2023-04-26T05:16:39.699Z,63.05
2023-04-26T05:17:39.715Z,61.64
2023-04-26T05:18:39.680Z,62.56
2023-04-26T05:19:39.654Z,62.12
2023-04-26T05:20:39.644Z,61.71
2023-04-26T05:21:39.637Z,61.20
2023-04-26T05:22:39.631Z,61.33
2023-04-26T05:23:39.613Z,61.54
2023-04-26T05:24:39.602Z,61.92
2023-04-26T05:25:39.628Z,60.38
2023-04-26T05:26:39.582Z,61.00
2023-04-26T05:27:39.574Z,61.23
2023-04-26T05:28:39.562Z,61.61
2023-04-26T05:29:39.574Z,60.53
2023-04-26T05:30:39.538Z,60.25
2023-04-26T05:31:39.572Z,60.94
2023-04-26T05:32:39.636Z,59.78
2023-04-26T05:33:39.519Z,59.20
2023-04-26T05:34:39.507Z,60.46
2023-04-26T05:35:39.494Z,60.86
2023-04-26T05:36:39.503Z,61.58
2023-04-26T05:37:39.476Z,60.60
2023-04-26T05:38:39.466Z,59.53
2023-04-26T05:39:39.509Z,58.78
2023-04-26T05:40:39.453Z,57.97
2023-04-26T05:41:39.449Z,56.97
2023-04-26T05:42:39.420Z,58.20
2023-04-26T05:43:39.416Z,58.07
2023-04-26T05:44:39.404Z,57.73
2023-04-26T05:45:39.454Z,56.07
2023-04-26T05:46:39.395Z,56.38
2023-04-26T05:47:39.489Z,55.87
2023-04-26T05:48:39.370Z,54.72
2023-04-26T05:49:39.369Z,54.72
2023-04-26T05:50:40.095Z,55.54
2023-04-26T05:51:39.385Z,54.49
2023-04-26T05:52:39.337Z,54.31
2023-04-26T05:53:39.330Z,55.26
2023-04-26T05:54:39.329Z,56.25
2023-04-26T05:55:39.311Z,54.00
2023-04-26T05:56:39.294Z,54.59
2023-04-26T05:57:39.336Z,54.26
2023-04-26T05:58:39.276Z,53.57
2023-04-26T05:59:39.274Z,54.31
2023-04-26T06:00:39.356Z,54.49
2023-04-26T06:01:39.286Z,54.36
2023-04-26T06:02:39.391Z,53.44
2023-04-26T06:03:39.429Z,53.34
2023-04-26T06:04:39.400Z,53.75
2023-04-26T06:05:39.327Z,52.93
2023-04-26T06:06:39.972Z,53.96
2023-04-26T06:07:39.208Z,53.24
2023-04-26T06:08:39.244Z,53.39
2023-04-26T06:09:39.191Z,54.64
2023-04-26T06:10:39.184Z,55.46
2023-04-26T06:11:39.175Z,55.15
2023-04-26T06:12:39.172Z,55.13
2023-04-26T06:13:39.158Z,55.20
2023-04-26T06:14:39.167Z,53.52
2023-04-26T06:15:39.154Z,53.39
2023-04-26T06:16:39.985Z,52.25
2023-04-26T06:17:39.172Z,51.61
2023-04-26T06:18:39.114Z,51.28
2023-04-26T06:19:39.128Z,50.16
2023-04-26T06:20:39.150Z,50.72
2023-04-26T06:21:39.209Z,51.66
2023-04-26T06:22:39.093Z,52.29
2023-04-26T06:23:39.088Z,52.48
2023-04-26T06:24:39.083Z,51.94
2023-04-26T06:25:39.075Z,51.43
2023-04-26T06:26:39.072Z,51.79
2023-04-26T06:27:39.088Z,50.55
2023-04-26T06:28:39.957Z,49.55
2023-04-26T06:29:39.040Z,50.55
2023-04-26T06:30:39.070Z,50.14
2023-04-26T06:31:39.166Z,49.48
2023-04-26T06:32:39.055Z,48.65
2023-04-26T06:33:39.018Z,48.11
2023-04-26T06:34:39.007Z,48.39
2023-04-26T06:35:39.270Z,48.67
2023-04-26T06:36:39.023Z,47.96
2023-04-26T06:37:38.984Z,48.16
2023-04-26T06:38:39.008Z,48.85
2023-04-26T06:39:39.027Z,48.72
2023-04-26T06:40:39.147Z,47.47
2023-04-26T06:41:38.966Z,50.37
2023-04-26T06:42:38.958Z,51.00
2023-04-26T06:43:38.952Z,50.62
2023-04-26T06:44:38.946Z,51.74
2023-04-26T06:45:40.529Z,51.61
2023-04-26T06:46:39.085Z,50.34
2023-04-26T06:47:38.960Z,49.35
2023-04-26T06:48:38.925Z,51.10
2023-04-26T06:49:38.920Z,50.67
2023-04-26T06:50:38.910Z,51.10
2023-04-26T06:51:38.913Z,50.62
2023-04-26T06:52:38.901Z,48.49
2023-04-26T06:53:38.889Z,47.96
2023-04-26T06:54:46.055Z,48.67
2023-04-26T06:55:38.880Z,48.85
2023-04-26T06:56:38.870Z,48.34
2023-04-26T06:57:38.876Z,49.10
2023-04-26T06:58:38.859Z,49.37
2023-04-26T06:59:38.946Z,51.35
2023-04-26T07:00:38.844Z,51.15
2023-04-26T07:01:38.879Z,51.61
2023-04-26T07:02:38.960Z,50.26
2023-04-26T07:03:39.019Z,49.84
2023-04-26T07:04:39.022Z,48.51
2023-04-26T07:05:38.832Z,50.24
2023-04-26T07:06:38.818Z,49.81
2023-04-26T07:07:38.812Z,49.81
2023-04-26T07:08:38.799Z,48.83
2023-04-26T07:09:38.797Z,48.40
2023-04-26T07:10:38.808Z,47.00
2023-04-26T07:11:38.784Z,48.72
2023-04-26T07:12:38.777Z,47.06
2023-04-26T07:13:38.769Z,46.71
2023-04-26T07:14:39.607Z,45.07
2023-04-26T07:15:38.758Z,44.54
2023-04-26T07:16:38.865Z,45.43
2023-04-26T07:17:38.771Z,43.67
2023-04-26T07:18:38.739Z,42.41
2023-04-26T07:19:38.743Z,43.06
2023-04-26T07:20:38.731Z,40.42
2023-04-26T07:21:38.733Z,39.94
2023-04-26T07:22:38.714Z,40.86
2023-04-26T07:23:38.713Z,40.74
2023-04-26T07:24:38.708Z,41.79
2023-04-26T07:25:38.706Z,41.27
2023-04-26T07:26:38.701Z,41.49
2023-04-26T07:27:38.699Z,43.16
2023-04-26T07:28:38.696Z,41.27
2023-04-26T07:29:38.685Z,41.63
2023-04-26T07:30:38.683Z,42.98
2023-04-26T07:31:38.852Z,44.12
2023-04-26T07:32:38.741Z,46.76
2023-04-26T07:33:38.837Z,48.74
2023-04-26T07:34:38.683Z,50.92
2023-04-26T07:35:38.664Z,51.03
2023-04-26T07:36:38.657Z,51.48
2023-04-26T07:37:38.651Z,51.93
2023-04-26T07:38:38.646Z,53.57
2023-04-26T07:39:38.634Z,52.27
2023-04-26T07:40:38.639Z,51.10
2023-04-26T07:41:38.649Z,50.82
2023-04-26T07:42:38.618Z,51.15
2023-04-26T07:43:38.646Z,52.01
2023-04-26T07:44:38.614Z,52.04
2023-04-26T07:45:38.653Z,52.50
2023-04-26T07:46:38.655Z,51.25
2023-04-26T07:47:38.823Z,51.22
2023-04-26T07:48:38.591Z,52.50
2023-04-26T07:49:38.604Z,54.64
2023-04-26T07:50:38.585Z,54.79
2023-04-26T07:51:38.577Z,52.22
2023-04-26T07:52:38.573Z,52.86
2023-04-26T07:53:38.559Z,52.55
2023-04-26T07:54:38.565Z,51.65
2023-04-26T07:55:38.588Z,51.96
2023-04-26T07:56:38.574Z,52.83
2023-04-26T07:57:38.553Z,52.93
2023-04-26T07:58:38.573Z,53.85
2023-04-26T07:59:38.524Z,54.61
2023-04-26T08:00:38.548Z,55.77
2023-04-26T08:01:38.534Z,56.41
2023-04-26T08:02:45.091Z,56.33
2023-04-26T08:03:38.705Z,57.46
2023-04-26T08:04:38.575Z,57.35
2023-04-26T08:05:39.650Z,56.46
2023-04-26T08:06:38.491Z,56.05
2023-04-26T08:07:38.505Z,56.77
2023-04-26T08:08:38.572Z,57.07
2023-04-26T08:09:38.458Z,57.18
2023-04-26T08:10:38.452Z,57.18
2023-04-26T08:11:38.509Z,57.35
2023-04-26T08:12:38.438Z,57.56
2023-04-26T08:13:38.429Z,57.46
2023-04-26T08:14:38.435Z,58.79
2023-04-26T08:15:38.429Z,58.89
2023-04-26T08:16:38.478Z,56.89
2023-04-26T08:17:38.469Z,57.20
2023-04-26T08:18:38.429Z,58.02
2023-04-26T08:19:38.390Z,57.30
2023-04-26T08:20:38.375Z,58.12
2023-04-26T08:21:38.363Z,57.51
2023-04-26T08:22:38.387Z,56.82
2023-04-26T08:23:38.365Z,55.26
2023-04-26T08:24:38.350Z,53.98
2023-04-26T08:25:38.331Z,54.10
2023-04-26T08:26:38.330Z,55.66
2023-04-26T08:27:38.318Z,56.38
2023-04-26T08:28:38.323Z,57.40
2023-04-26T08:29:38.306Z,56.30
2023-04-26T08:30:38.323Z,56.30
2023-04-26T08:31:38.465Z,56.20
2023-04-26T08:32:38.356Z,56.69
2023-04-26T08:33:38.270Z,56.07
2023-04-26T08:34:38.260Z,55.87
2023-04-26T08:35:38.325Z,55.38
2023-04-26T08:36:38.300Z,55.30
2023-04-26T08:37:38.257Z,56.15
2023-04-26T08:38:38.226Z,57.61
2023-04-26T08:39:38.222Z,57.87
2023-04-26T08:40:38.215Z,59.52
2023-04-26T08:41:38.215Z,59.11
2023-04-26T08:42:38.197Z,58.21
2023-04-26T08:43:38.197Z,59.34
2023-04-26T08:44:38.189Z,59.75
2023-04-26T08:45:38.185Z,59.64
2023-04-26T08:46:38.255Z,59.72
2023-04-26T08:47:38.204Z,58.87
2023-04-26T08:48:38.159Z,60.28
2023-04-26T08:49:38.145Z,57.69
2023-04-26T08:50:38.154Z,56.77
2023-04-26T08:51:38.235Z,56.67
2023-04-26T08:52:38.126Z,55.13
2023-04-26T08:53:38.114Z,55.43
2023-04-26T08:54:38.100Z,56.59
2023-04-26T08:55:38.105Z,55.38
2023-04-26T08:56:38.086Z,56.95
2023-04-26T08:57:38.088Z,57.67
2023-04-26T08:58:38.078Z,59.00
2023-04-26T08:59:38.076Z,59.31
2023-04-26T09:00:38.053Z,58.28
2023-04-26T09:01:38.100Z,59.41
2023-04-26T09:02:38.249Z,59.23
2023-04-26T09:03:38.211Z,60.13
2023-04-26T09:04:38.458Z,60.36
2023-04-26T09:05:38.014Z,61.29
2023-04-26T09:06:38.003Z,61.70
2023-04-26T09:07:38.037Z,61.70
2023-04-26T09:08:37.989Z,60.77
2023-04-26T09:09:37.999Z,61.98
2023-04-26T09:10:37.965Z,60.64
2023-04-26T09:11:37.956Z,60.44
2023-04-26T09:12:37.945Z,61.13
2023-04-26T09:13:37.948Z,60.31
2023-04-26T09:14:37.936Z,59.69
2023-04-26T09:15:37.940Z,59.08
2023-04-26T09:16:38.073Z,59.59
2023-04-26T09:17:37.973Z,59.77
2023-04-26T09:18:37.896Z,59.23
2023-04-26T09:19:37.945Z,58.30
2023-04-26T09:20:37.877Z,57.28
2023-04-26T09:21:37.871Z,57.31
2023-04-26T09:22:37.872Z,57.69
2023-04-26T09:23:37.865Z,56.79
2023-04-26T09:24:37.846Z,56.92
2023-04-26T09:25:37.842Z,58.26
2023-04-26T09:26:37.831Z,58.72
2023-04-26T09:27:37.827Z,60.60
2023-04-26T09:28:37.816Z,62.14
2023-04-26T09:29:37.896Z,62.85
2023-04-26T09:30:37.794Z,65.45
2023-04-26T09:31:37.829Z,65.25
2023-04-26T09:32:37.888Z,66.28
2023-04-26T09:33:37.763Z,65.45
2023-04-26T09:34:37.758Z,65.66
2023-04-26T09:35:37.761Z,65.05
2023-04-26T09:36:37.760Z,65.05
2023-04-26T09:37:44.275Z,63.78
2023-04-26T09:38:37.723Z,65.83
2023-04-26T09:39:37.791Z,65.39
2023-04-26T09:40:37.719Z,62.52
2023-04-26T09:41:37.695Z,64.57
2023-04-26T09:42:37.684Z,62.11
2023-04-26T09:43:37.681Z,62.29
2023-04-26T09:44:37.667Z,60.67
2023-04-26T09:45:37.658Z,61.05
2023-04-26T09:46:37.692Z,60.10
2023-04-26T09:47:37.653Z,60.00
2023-04-26T09:48:37.633Z,56.74
2023-04-26T09:49:37.625Z,58.59
2023-04-26T09:50:37.617Z,57.95
2023-04-26T09:51:37.610Z,58.97
2023-04-26T09:52:37.596Z,57.84
2023-04-26T09:53:37.597Z,58.33
2023-04-26T09:54:37.577Z,59.87
2023-04-26T09:55:37.569Z,56.79
2023-04-26T09:56:37.565Z,56.79
2023-04-26T09:57:37.550Z,57.28
2023-04-26T09:58:37.557Z,56.46
2023-04-26T09:59:37.532Z,56.69
2023-04-26T10:00:37.613Z,57.38
2023-04-26T10:01:37.677Z,56.90
2023-04-26T10:02:37.596Z,56.59
2023-04-26T10:03:37.963Z,56.18
2023-04-26T10:04:37.530Z,56.07
2023-04-26T10:05:37.481Z,56.05
2023-04-26T10:06:37.481Z,56.15
2023-04-26T10:07:37.462Z,54.82
2023-04-26T10:08:37.453Z,54.72
2023-04-26T10:09:37.448Z,54.21
2023-04-26T10:10:37.450Z,55.64
2023-04-26T10:11:38.892Z,54.08
2023-04-26T10:12:37.418Z,53.26
2023-04-26T10:13:37.421Z,52.85
2023-04-26T10:14:37.403Z,54.69
2023-04-26T10:15:37.396Z,52.03
2023-04-26T10:16:37.445Z,52.64
2023-04-26T10:17:37.402Z,52.72
2023-04-26T10:18:37.374Z,52.31
2023-04-26T10:19:37.360Z,52.34
2023-04-26T10:20:37.350Z,52.75
2023-04-26T10:21:37.345Z,52.44
2023-04-26T10:22:37.336Z,53.97
2023-04-26T10:23:37.326Z,52.34
2023-04-26T10:24:37.325Z,52.75
2023-04-26T10:25:37.307Z,52.56
2023-04-26T10:26:37.298Z,52.85
2023-04-26T10:27:37.297Z,52.64
2023-04-26T10:28:37.290Z,52.67
2023-04-26T10:29:37.288Z,53.67
2023-04-26T10:30:37.266Z,52.85
2023-04-26T10:31:37.311Z,53.87
2023-04-26T10:32:37.290Z,53.33
2023-04-26T10:33:37.262Z,52.11
2023-04-26T10:34:37.285Z,52.62
2023-04-26T10:35:37.231Z,53.11
2023-04-26T10:36:37.221Z,52.47
2023-04-26T10:37:37.212Z,54.10
2023-04-26T10:38:37.206Z,53.06
2023-04-26T10:39:37.196Z,52.72
2023-04-26T10:40:37.189Z,50.45
2023-04-26T10:41:37.181Z,51.37
2023-04-26T10:42:37.172Z,52.50
2023-04-26T10:43:37.173Z,50.96
2023-04-26T10:44:37.156Z,51.68
2023-04-26T10:45:37.174Z,50.25
2023-04-26T10:46:37.273Z,50.37
2023-04-26T10:47:37.409Z,50.40
2023-04-26T10:48:37.129Z,51.73
2023-04-26T10:49:37.126Z,51.14
2023-04-26T10:50:37.112Z,50.93
2023-04-26T10:51:37.108Z,51.95
2023-04-26T10:52:37.118Z,51.50
2023-04-26T10:53:37.095Z,53.05
2023-04-26T10:54:37.082Z,54.41
2023-04-26T10:55:37.099Z,55.33
2023-04-26T10:56:37.065Z,55.54
2023-04-26T10:57:37.057Z,56.43
2023-04-26T10:58:37.048Z,56.54
2023-04-26T10:59:51.099Z,56.33
2023-04-26T11:00:37.033Z,56.00
2023-04-26T11:01:37.072Z,53.95
2023-04-26T11:02:37.071Z,53.72
2023-04-26T11:03:37.233Z,56.07
2023-04-26T11:04:37.054Z,54.10
2023-04-26T11:05:36.997Z,53.57
2023-04-26T11:06:36.988Z,51.50
2023-04-26T11:07:36.980Z,51.40
2023-04-26T11:08:37.004Z,51.40
2023-04-26T11:09:36.979Z,50.48
2023-04-26T11:10:36.991Z,51.17
2023-04-26T11:11:36.944Z,51.78
2023-04-26T11:12:36.938Z,50.84
2023-04-26T11:13:36.966Z,49.10
2023-04-26T11:14:36.927Z,47.88
2023-04-26T11:15:36.970Z,46.78
2023-04-26T11:16:36.999Z,46.47
2023-04-26T11:17:36.917Z,46.39
2023-04-26T11:18:36.901Z,47.64
2023-04-26T11:19:36.911Z,47.66
2023-04-26T11:20:36.881Z,48.79
2023-04-26T11:21:36.871Z,49.60
2023-04-26T11:22:36.867Z,51.14
2023-04-26T11:23:36.853Z,49.89
2023-04-26T11:24:36.946Z,50.30
2023-04-26T11:25:36.848Z,50.20
2023-04-26T11:26:36.837Z,49.99
2023-04-26T11:27:36.847Z,51.09
2023-04-26T11:28:36.816Z,50.89
2023-04-26T11:29:36.831Z,48.94
2023-04-26T11:30:36.808Z,50.56
2023-04-26T11:31:36.862Z,48.64
2023-04-26T11:32:36.841Z,51.19
2023-04-26T11:33:36.794Z,50.58
2023-04-26T11:34:36.808Z,51.37
2023-04-26T11:35:36.765Z,49.33
2023-04-26T11:36:36.774Z,46.39
2023-04-26T11:37:36.750Z,46.82
2023-04-26T11:38:36.736Z,46.80
2023-04-26T11:39:36.741Z,47.92
2023-04-26T11:40:36.733Z,48.13
2023-04-26T11:41:36.739Z,48.64
2023-04-26T11:42:36.713Z,48.61
2023-04-26T11:43:36.828Z,47.37
2023-04-26T11:44:36.697Z,47.98
2023-04-26T11:45:36.763Z,48.16
2023-04-26T11:46:36.715Z,46.41
2023-04-26T11:47:36.817Z,45.40
2023-04-26T11:48:36.681Z,45.40
2023-04-26T11:49:36.659Z,45.10
2023-04-26T11:50:36.674Z,45.10
2023-04-26T11:51:36.656Z,45.28
2023-04-26T11:52:36.648Z,46.94
2023-04-26T11:53:36.634Z,46.61
2023-04-26T11:54:36.637Z,45.08
2023-04-26T11:55:36.617Z,44.16
2023-04-26T11:56:36.606Z,46.20
2023-04-26T11:57:36.604Z,45.51
2023-04-26T11:58:36.593Z,46.20
2023-04-26T11:59:36.591Z,46.30
2023-04-26T12:00:36.585Z,47.63
2023-04-26T12:01:36.578Z,46.61
2023-04-26T12:02:36.744Z,46.00
2023-04-26T12:03:36.698Z,46.00
2023-04-26T12:04:36.641Z,46.25
2023-04-26T12:05:36.762Z,45.94
2023-04-26T12:06:36.538Z,47.69
2023-04-26T12:07:36.561Z,48.05
2023-04-26T12:08:36.526Z,49.25
2023-04-26T12:09:36.514Z,48.02
2023-04-26T12:10:36.509Z,48.94
2023-04-26T12:11:36.498Z,48.41
2023-04-26T12:12:36.492Z,47.69
2023-04-26T12:13:36.496Z,46.80
2023-04-26T12:14:36.477Z,48.23
2023-04-26T12:15:36.472Z,47.74
2023-04-26T12:16:36.465Z,48.76
2023-04-26T12:17:36.465Z,48.27
2023-04-26T12:18:36.448Z,49.71
2023-04-26T12:19:36.481Z,49.63
2023-04-26T12:20:36.439Z,51.06
2023-04-26T12:21:36.425Z,50.32
2023-04-26T12:22:36.416Z,51.14
2023-04-26T12:23:36.407Z,51.65
2023-04-26T12:24:36.417Z,51.86
2023-04-26T12:25:36.393Z,50.27
2023-04-26T12:26:36.393Z,49.05
2023-04-26T12:27:36.376Z,50.35
2023-04-26T12:28:36.434Z,49.55
2023-04-26T12:29:36.368Z,50.56
2023-04-26T12:30:36.353Z,50.45
2023-04-26T12:31:36.382Z,52.09
2023-04-26T12:32:36.368Z,50.12
2023-04-26T12:33:36.392Z,48.39
2023-04-26T12:34:36.337Z,50.23
2023-04-26T12:35:36.310Z,46.25
2023-04-26T12:36:36.339Z,48.61
2023-04-26T12:37:36.305Z,48.90
2023-04-26T12:38:36.299Z,47.88
2023-04-26T12:39:36.287Z,46.34
2023-04-26T12:40:36.277Z,46.63
2023-04-26T12:41:36.282Z,46.53
2023-04-26T12:42:36.264Z,45.61
2023-04-26T12:43:36.270Z,47.55
2023-04-26T12:44:36.250Z,46.66
2023-04-26T12:45:36.241Z,47.08
2023-04-26T12:46:36.434Z,47.60
2023-04-26T12:47:36.255Z,48.41
2023-04-26T12:48:36.231Z,48.61
2023-04-26T12:49:36.215Z,47.88
2023-04-26T12:50:36.202Z,46.88
2023-04-26T12:51:36.218Z,48.61
2023-04-26T12:52:36.193Z,50.37